Time;durP1;ratioP1;P1;durP2;ratioP2;P2;SDS_P1;SDS_P2;PMS_P1;PMS_P2;Temp;Humidity;BMP_temperature;BMP_pressure;BME280_temperature;BME280_humidity;BME280_pressure;Samples;Min_cycle;Max_cycle;Signal;HPM_P1;HPM_P2
2020/12/18 00:02:00;;;;;;;;;;;19.40;40.90;;;;;;491662;240;1190;-53
2020/12/18 00:04:02;;;;;;;;;;;19.40;41.00;;;;;;491896;240;1101;-53
2020/12/18 00:06:03;;;;;;;;;;;19.40;41.00;;;;;;491662;240;1187;-53
2020/12/18 00:08:04;;;;;;;;;;;19.40;41.10;;;;;;491826;240;1062;-53
2020/12/18 00:10:05;;;;;;;;;;;19.30;41.10;;;;;;491588;240;1216;-53
2020/12/18 00:12:07;;;;;;;;;;;19.30;41.20;;;;;;491631;240;1062;-53
2020/12/18 00:14:08;;;;;;;;;;;19.20;41.20;;;;;;491704;240;1051;-53
2020/12/18 00:16:09;;;;;;;;;;;19.20;41.30;;;;;;491779;240;1136;-53
2020/12/18 00:18:11;;;;;;;;;;;19.20;41.30;;;;;;491741;240;1174;-53
2020/12/18 00:20:12;;;;;;;;;;;19.20;41.40;;;;;;491623;240;2175;-54
2020/12/18 00:22:13;;;;;;;;;;;19.10;41.40;;;;;;491689;240;1089;-53
2020/12/18 00:24:14;;;;;;;;;;;19.10;41.50;;;;;;491648;240;985;-53
2020/12/18 00:26:16;;;;;;;;;;;19.10;41.50;;;;;;491633;240;992;-53
2020/12/18 00:28:17;;;;;;;;;;;19.10;41.60;;;;;;491640;240;1070;-53
2020/12/18 00:30:18;;;;;;;;;;;19.00;41.60;;;;;;491697;240;1060;-53
2020/12/18 00:32:20;;;;;;;;;;;19.00;41.60;;;;;;491629;240;1389;-53
2020/12/18 00:34:21;;;;;;;;;;;19.00;41.70;;;;;;491686;240;1049;-53
2020/12/18 00:36:22;;;;;;;;;;;19.00;41.80;;;;;;491510;240;1208;-53
2020/12/18 00:38:23;;;;;;;;;;;19.00;41.80;;;;;;491667;240;1047;-53
2020/12/18 00:40:25;;;;;;;;;;;18.90;41.70;;;;;;491910;240;2132;-53
2020/12/18 00:42:26;;;;;;;;;;;18.90;41.80;;;;;;491755;240;1173;-53
2020/12/18 00:44:27;;;;;;;;;;;18.90;41.80;;;;;;491788;240;1055;-53
2020/12/18 00:46:29;;;;;;;;;;;18.90;41.90;;;;;;491626;240;1226;-53
2020/12/18 00:48:30;;;;;;;;;;;18.80;41.80;;;;;;491634;240;948;-53
2020/12/18 00:50:33;;;;;;;;;;;18.80;41.90;;;;;;491730;239;1284;-54
2020/12/18 00:52:32;;;;;;;;;;;18.80;41.90;;;;;;491834;241;1204;-53
2020/12/18 00:54:34;;;;;;;;;;;18.80;41.90;;;;;;491646;240;1246;-53
2020/12/18 00:56:35;;;;;;;;;;;18.80;42.00;;;;;;491591;240;1155;-53
2020/12/18 00:58:36;;;;;;;;;;;18.80;42.00;;;;;;491734;240;989;-53
2020/12/18 01:00:37;;;;;;;;;;;18.80;42.00;;;;;;491574;240;2175;-53
2020/12/18 01:02:39;;;;;;;;;;;18.70;42.00;;;;;;491609;240;1246;-53
2020/12/18 01:04:40;;;;;;;;;;;18.70;42.00;;;;;;491605;240;1110;-53
2020/12/18 01:06:41;;;;;;;;;;;18.70;42.00;;;;;;491643;240;1229;-53
2020/12/18 01:08:43;;;;;;;;;;;18.70;42.00;;;;;;491651;240;1076;-53
2020/12/18 01:10:44;;;;;;;;;;;18.70;42.10;;;;;;491755;240;1496;-53
2020/12/18 01:12:45;;;;;;;;;;;18.70;42.10;;;;;;491614;240;1788;-53
2020/12/18 01:14:46;;;;;;;;;;;18.70;42.10;;;;;;491635;240;1036;-53
2020/12/18 01:16:48;;;;;;;;;;;18.70;42.10;;;;;;491578;238;1319;-53
2020/12/18 01:18:49;;;;;;;;;;;18.60;42.10;;;;;;491637;240;1065;-53
2020/12/18 01:20:50;;;;;;;;;;;18.60;42.10;;;;;;492053;240;2125;-52
2020/12/18 01:22:51;;;;;;;;;;;18.60;42.10;;;;;;491866;240;1073;-53
2020/12/18 01:24:53;;;;;;;;;;;18.60;42.10;;;;;;491779;240;1066;-53
2020/12/18 01:26:54;;;;;;;;;;;18.60;42.20;;;;;;491596;240;1315;-53
2020/12/18 01:28:55;;;;;;;;;;;18.60;42.20;;;;;;491567;240;1143;-53
2020/12/18 01:30:56;;;;;;;;;;;18.60;42.20;;;;;;491770;240;1050;-53
2020/12/18 01:32:58;;;;;;;;;;;18.60;42.20;;;;;;491533;240;1238;-53
2020/12/18 01:34:59;;;;;;;;;;;18.50;42.10;;;;;;491650;240;1067;-53
2020/12/18 01:37:00;;;;;;;;;;;18.60;42.20;;;;;;491700;240;1376;-53
2020/12/18 01:39:02;;;;;;;;;;;18.50;42.20;;;;;;491651;240;969;-53
2020/12/18 01:41:03;;;;;;;;;;;18.50;42.20;;;;;;491803;240;2244;-53
2020/12/18 01:43:04;;;;;;;;;;;18.50;42.20;;;;;;491639;240;1095;-53
2020/12/18 01:45:05;;;;;;;;;;;18.50;42.20;;;;;;491774;240;1028;-53
2020/12/18 01:47:07;;;;;;;;;;;18.50;42.20;;;;;;491719;240;1306;-53
2020/12/18 01:49:08;;;;;;;;;;;18.50;42.30;;;;;;491601;240;1026;-53
2020/12/18 01:51:09;;;;;;;;;;;18.50;42.30;;;;;;491712;240;1207;-53
2020/12/18 01:53:11;;;;;;;;;;;18.50;42.30;;;;;;491666;240;1012;-53
2020/12/18 01:55:12;;;;;;;;;;;18.40;42.20;;;;;;491888;240;1182;-53
2020/12/18 01:57:13;;;;;;;;;;;18.40;42.30;;;;;;491611;240;1120;-53
2020/12/18 01:59:14;;;;;;;;;;;18.40;42.30;;;;;;491727;240;1054;-53
2020/12/18 02:01:16;;;;;;;;;;;18.40;42.30;;;;;;491501;240;2188;-53
2020/12/18 02:03:17;;;;;;;;;;;18.40;42.30;;;;;;491615;240;1187;-53
2020/12/18 02:05:18;;;;;;;;;;;18.40;42.30;;;;;;491747;240;1131;-53
2020/12/18 02:07:19;;;;;;;;;;;18.40;42.30;;;;;;491615;240;1268;-53
2020/12/18 02:09:21;;;;;;;;;;;18.40;42.40;;;;;;491716;240;1031;-53
2020/12/18 02:11:23;;;;;;;;;;;18.40;42.40;;;;;;491629;240;975;-53
2020/12/18 02:13:23;;;;;;;;;;;18.40;41.10;;;;;;491619;240;2162;-53
2020/12/18 02:15:25;;;;;;;;;;;18.40;42.40;;;;;;491648;240;959;-53
2020/12/18 02:17:26;;;;;;;;;;;18.40;42.30;;;;;;491610;240;1156;-53
2020/12/18 02:19:27;;;;;;;;;;;18.30;42.30;;;;;;491870;240;1036;-53
2020/12/18 02:21:28;;;;;;;;;;;18.40;42.40;;;;;;491842;240;2113;-53
2020/12/18 02:23:30;;;;;;;;;;;18.40;42.40;;;;;;492091;240;1055;-53
2020/12/18 02:25:31;;;;;;;;;;;18.30;42.30;;;;;;491822;240;1030;-53
2020/12/18 02:27:32;;;;;;;;;;;18.30;42.40;;;;;;491823;240;1035;-53
2020/12/18 02:29:33;;;;;;;;;;;18.30;42.40;;;;;;491792;240;1059;-53
2020/12/18 02:31:35;;;;;;;;;;;18.30;42.40;;;;;;491626;240;1126;-53
2020/12/18 02:33:36;;;;;;;;;;;18.30;42.40;;;;;;491703;240;1221;-53
2020/12/18 02:35:37;;;;;;;;;;;18.30;42.40;;;;;;491699;240;968;-53
2020/12/18 02:37:39;;;;;;;;;;;18.30;42.40;;;;;;491775;240;1162;-53
2020/12/18 02:39:40;;;;;;;;;;;18.30;42.40;;;;;;491861;240;1049;-53
2020/12/18 02:41:41;;;;;;;;;;;18.30;42.40;;;;;;491708;240;2137;-53
2020/12/18 02:43:42;;;;;;;;;;;18.30;42.50;;;;;;491640;240;1059;-53
2020/12/18 02:45:44;;;;;;;;;;;18.20;42.40;;;;;;491606;240;1086;-53
2020/12/18 02:47:45;;;;;;;;;;;18.30;42.50;;;;;;491722;240;1692;-53
2020/12/18 02:49:46;;;;;;;;;;;18.30;42.50;;;;;;491724;240;1032;-52
2020/12/18 02:51:48;;;;;;;;;;;18.30;42.40;;;;;;491772;240;985;-53
2020/12/18 02:53:49;;;;;;;;;;;18.20;41.10;;;;;;491834;240;1078;-53
2020/12/18 02:55:50;;;;;;;;;;;18.20;42.40;;;;;;491783;240;2055;-53
2020/12/18 02:57:51;;;;;;;;;;;18.30;42.40;;;;;;491737;240;996;-53
2020/12/18 02:59:53;;;;;;;;;;;18.30;42.30;;;;;;491616;240;1065;-53
2020/12/18 03:01:54;;;;;;;;;;;18.30;42.30;;;;;;491857;240;2192;-53
2020/12/18 03:03:55;;;;;;;;;;;18.30;42.20;;;;;;491631;240;1189;-53
2020/12/18 03:05:57;;;;;;;;;;;18.30;42.10;;;;;;491754;240;1033;-53
2020/12/18 03:07:58;;;;;;;;;;;18.40;42.10;;;;;;491615;240;1042;-53
2020/12/18 03:09:59;;;;;;;;;;;18.40;42.10;;;;;;491883;240;1067;-53
2020/12/18 03:12:00;;;;;;;;;;;18.40;40.80;;;;;;491645;240;993;-53
2020/12/18 03:14:03;;;;;;;;;;;18.40;42.00;;;;;;491714;240;1036;-53
2020/12/18 03:16:04;;;;;;;;;;;18.50;42.00;;;;;;491738;240;1073;-53
2020/12/18 03:18:06;;;;;;;;;;;18.50;41.90;;;;;;491804;240;1184;-54
2020/12/18 03:20:07;;;;;;;;;;;18.50;41.90;;;;;;491866;240;2148;-53
2020/12/18 03:22:08;;;;;;;;;;;18.50;41.80;;;;;;492123;240;1059;-53
2020/12/18 03:24:09;;;;;;;;;;;18.50;41.80;;;;;;491665;240;956;-53
2020/12/18 03:26:11;;;;;;;;;;;18.50;41.70;;;;;;491656;240;1040;-53
2020/12/18 03:28:12;;;;;;;;;;;18.60;41.70;;;;;;491621;240;1122;-53
2020/12/18 03:30:13;;;;;;;;;;;18.60;41.70;;;;;;491637;240;1056;-53
2020/12/18 03:32:15;;;;;;;;;;;18.60;41.70;;;;;;491634;240;1059;-53
2020/12/18 03:34:16;;;;;;;;;;;18.70;41.70;;;;;;491756;240;1211;-53
2020/12/18 03:36:17;;;;;;;;;;;18.70;41.60;;;;;;491646;240;1113;-52
2020/12/18 03:38:18;;;;;;;;;;;18.70;41.60;;;;;;491647;240;1177;-53
2020/12/18 03:40:20;;;;;;;;;;;18.70;41.50;;;;;;491656;240;2141;-53
2020/12/18 03:42:21;;;;;;;;;;;18.70;40.20;;;;;;491846;240;1260;-53
2020/12/18 03:44:22;;;;;;;;;;;18.70;41.50;;;;;;491642;240;1067;-53
2020/12/18 03:46:23;;;;;;;;;;;18.70;41.50;;;;;;491598;240;1123;-53
2020/12/18 03:48:25;;;;;;;;;;;18.80;41.40;;;;;;491616;240;1185;-52
2020/12/18 03:50:26;;;;;;;;;;;18.80;41.40;;;;;;491546;240;1213;-54
2020/12/18 03:52:27;;;;;;;;;;;18.80;41.40;;;;;;491646;240;1167;-53
2020/12/18 03:54:29;;;;;;;;;;;18.80;41.30;;;;;;491668;240;1391;-53
2020/12/18 03:56:30;;;;;;;;;;;18.80;41.30;;;;;;491656;240;1075;-53
2020/12/18 03:58:31;;;;;;;;;;;18.80;41.30;;;;;;491691;240;1030;-53
2020/12/18 04:00:32;;;;;;;;;;;18.90;41.30;;;;;;491745;240;2187;-53
2020/12/18 04:02:34;;;;;;;;;;;18.90;41.20;;;;;;491601;240;1027;-53
2020/12/18 04:04:35;;;;;;;;;;;18.90;41.20;;;;;;491628;240;1199;-53
2020/12/18 04:06:36;;;;;;;;;;;18.90;41.20;;;;;;491626;240;1004;-54
2020/12/18 04:08:38;;;;;;;;;;;18.90;41.20;;;;;;491789;240;1089;-52
2020/12/18 04:10:39;;;;;;;;;;;19.00;41.20;;;;;;491663;240;968;-53
2020/12/18 04:12:40;;;;;;;;;;;18.90;41.10;;;;;;491590;240;1153;-53
2020/12/18 04:14:41;;;;;;;;;;;19.00;41.10;;;;;;491630;240;1047;-53
2020/12/18 04:16:43;;;;;;;;;;;19.00;41.10;;;;;;491640;240;1043;-53
2020/12/18 04:18:44;;;;;;;;;;;19.00;41.00;;;;;;491638;240;1170;-53
2020/12/18 04:20:45;;;;;;;;;;;19.00;41.00;;;;;;491642;240;2195;-53
2020/12/18 04:22:47;;;;;;;;;;;19.00;41.00;;;;;;491863;240;1267;-53
2020/12/18 04:24:48;;;;;;;;;;;19.00;41.00;;;;;;491818;240;985;-54
2020/12/18 04:26:49;;;;;;;;;;;19.10;41.00;;;;;;491816;240;1028;-53
2020/12/18 04:28:50;;;;;;;;;;;19.10;41.00;;;;;;491673;240;958;-53
2020/12/18 04:30:52;;;;;;;;;;;19.10;41.00;;;;;;491615;240;953;-53
2020/12/18 04:32:53;;;;;;;;;;;19.10;40.90;;;;;;491608;240;957;-53
2020/12/18 04:34:54;;;;;;;;;;;19.10;40.90;;;;;;491630;240;1168;-53
2020/12/18 04:36:56;;;;;;;;;;;19.10;40.90;;;;;;491868;240;1165;-53
2020/12/18 04:38:57;;;;;;;;;;;19.20;40.90;;;;;;491691;240;1054;-53
2020/12/18 04:40:58;;;;;;;;;;;19.10;40.80;;;;;;491812;240;2196;-53
2020/12/18 04:42:59;;;;;;;;;;;19.10;40.80;;;;;;491592;240;1015;-53
2020/12/18 04:45:01;;;;;;;;;;;19.20;40.80;;;;;;491857;240;1077;-53
2020/12/18 04:47:02;;;;;;;;;;;19.20;40.80;;;;;;491611;240;1101;-53
2020/12/18 04:49:03;;;;;;;;;;;19.20;40.80;;;;;;491722;240;1151;-53
2020/12/18 04:51:04;;;;;;;;;;;19.20;40.80;;;;;;491493;240;1544;-53
2020/12/18 04:53:06;;;;;;;;;;;19.20;40.70;;;;;;491646;240;1053;-53
2020/12/18 04:55:07;;;;;;;;;;;19.20;40.70;;;;;;491622;240;1172;-53
2020/12/18 04:57:10;;;;;;;;;;;19.30;40.70;;;;;;491532;240;1136;-53
2020/12/18 04:59:09;;;;;;;;;;;19.30;40.70;;;;;;491663;241;1932;-53
2020/12/18 05:01:11;;;;;;;;;;;19.30;40.70;;;;;;491484;240;2196;-53
2020/12/18 05:03:12;;;;;;;;;;;19.30;40.70;;;;;;491590;240;1186;-54
2020/12/18 05:05:13;;;;;;;;;;;19.30;40.70;;;;;;491619;240;1386;-53
2020/12/18 05:07:15;;;;;;;;;;;19.30;39.40;;;;;;491587;240;1181;-53
2020/12/18 05:09:16;;;;;;;;;;;19.30;40.70;;;;;;491742;240;1129;-54
2020/12/18 05:11:17;;;;;;;;;;;19.30;40.60;;;;;;491730;240;1087;-53
2020/12/18 05:13:18;;;;;;;;;;;19.30;40.60;;;;;;491760;240;1022;-53
2020/12/18 05:15:20;;;;;;;;;;;19.30;40.60;;;;;;491673;240;1089;-53
2020/12/18 05:17:21;;;;;;;;;;;19.30;40.50;;;;;;491556;240;1230;-53
2020/12/18 05:19:22;;;;;;;;;;;19.30;40.50;;;;;;491608;240;1188;-53
2020/12/18 05:21:24;;;;;;;;;;;19.40;40.60;;;;;;491558;240;2152;-53
2020/12/18 05:23:25;;;;;;;;;;;19.40;40.50;;;;;;491866;240;1190;-53
2020/12/18 05:25:26;;;;;;;;;;;19.40;40.50;;;;;;491550;240;1136;-53
2020/12/18 05:27:28;;;;;;;;;;;19.40;40.50;;;;;;491473;240;1221;-53
2020/12/18 05:29:29;;;;;;;;;;;19.40;40.50;;;;;;491613;240;1047;-52
2020/12/18 05:31:30;;;;;;;;;;;19.40;40.50;;;;;;491555;240;1034;-53
2020/12/18 05:33:31;;;;;;;;;;;19.40;40.50;;;;;;491576;240;1200;-53
2020/12/18 05:35:33;;;;;;;;;;;19.40;40.40;;;;;;491586;240;1141;-53
2020/12/18 05:37:34;;;;;;;;;;;19.40;40.40;;;;;;491633;240;1337;-53
2020/12/18 05:39:35;;;;;;;;;;;19.40;40.40;;;;;;491607;240;1307;-54
2020/12/18 05:41:37;;;;;;;;;;;19.50;40.50;;;;;;491539;240;2188;-53
2020/12/18 05:43:38;;;;;;;;;;;19.50;40.50;;;;;;491568;240;1070;-53
2020/12/18 05:45:39;;;;;;;;;;;19.50;40.40;;;;;;491611;240;1191;-53
2020/12/18 05:47:40;;;;;;;;;;;19.50;40.40;;;;;;491527;240;1221;-53
2020/12/18 05:52:03;;;;;;;;;;;19.50;40.40;;;;;;491479;240;1147;-53
2020/12/18 05:54:04;;;;;;;;;;;19.50;40.40;;;;;;491473;240;1036;-53
2020/12/18 05:56:06;;;;;;;;;;;19.50;40.40;;;;;;491522;240;1076;-53
2020/12/18 05:58:07;;;;;;;;;;;19.50;40.30;;;;;;491512;240;1055;-53
2020/12/18 06:00:09;;;;;;;;;;;19.50;40.30;;;;;;491433;240;1070;-53
2020/12/18 06:02:10;;;;;;;;;;;19.60;40.40;;;;;;491421;240;2144;-53
2020/12/18 06:04:11;;;;;;;;;;;19.50;40.30;;;;;;491444;240;1071;-53
2020/12/18 06:06:12;;;;;;;;;;;19.60;40.40;;;;;;491436;240;1150;-53
2020/12/18 06:08:14;;;;;;;;;;;19.60;40.30;;;;;;491455;240;1033;-53
2020/12/18 06:10:15;;;;;;;;;;;19.60;40.30;;;;;;491503;240;1046;-53
2020/12/18 06:12:16;;;;;;;;;;;19.60;40.30;;;;;;491678;240;1052;-53
2020/12/18 06:14:18;;;;;;;;;;;19.60;40.30;;;;;;491465;240;1043;-53
2020/12/18 06:16:19;;;;;;;;;;;19.60;40.30;;;;;;491553;240;1061;-53
2020/12/18 06:18:20;;;;;;;;;;;19.60;39.00;;;;;;491468;240;1048;-53
2020/12/18 06:20:21;;;;;;;;;;;19.60;40.30;;;;;;491527;240;1163;-53
2020/12/18 06:22:23;;;;;;;;;;;19.60;40.20;;;;;;491583;240;2136;-53
2020/12/18 06:24:24;;;;;;;;;;;19.70;40.30;;;;;;491487;240;1034;-53
2020/12/18 06:26:25;;;;;;;;;;;19.60;40.20;;;;;;491457;240;1090;-53
2020/12/18 06:28:26;;;;;;;;;;;19.60;40.20;;;;;;491341;240;1062;-53
2020/12/18 06:30:28;;;;;;;;;;;19.60;40.20;;;;;;491351;240;1060;-54
2020/12/18 06:32:29;;;;;;;;;;;19.60;40.20;;;;;;491307;240;982;-53
2020/12/18 06:34:30;;;;;;;;;;;19.60;40.20;;;;;;491405;240;938;-53
2020/12/18 06:36:32;;;;;;;;;;;19.70;40.20;;;;;;491349;240;1609;-54
2020/12/18 06:38:33;;;;;;;;;;;19.70;40.20;;;;;;491380;240;1044;-53
2020/12/18 06:40:34;;;;;;;;;;;19.70;38.90;;;;;;491364;240;1192;-54
2020/12/18 06:42:35;;;;;;;;;;;19.70;40.20;;;;;;491426;240;2133;-54
2020/12/18 06:44:37;;;;;;;;;;;19.70;40.20;;;;;;491414;240;1201;-53
2020/12/18 06:46:38;;;;;;;;;;;19.70;40.10;;;;;;491390;240;1220;-53
2020/12/18 06:48:39;;;;;;;;;;;19.70;40.20;;;;;;491527;240;1025;-53
2020/12/18 06:50:40;;;;;;;;;;;19.70;40.20;;;;;;491353;240;1255;-53
2020/12/18 06:52:42;;;;;;;;;;;19.70;40.10;;;;;;491321;240;1053;-53
2020/12/18 06:54:43;;;;;;;;;;;19.70;40.10;;;;;;491307;240;1065;-53
2020/12/18 06:56:44;;;;;;;;;;;19.70;40.10;;;;;;491135;240;1183;-54
2020/12/18 06:58:46;;;;;;;;;;;19.70;40.10;;;;;;491225;240;1053;-53
2020/12/18 07:00:47;;;;;;;;;;;19.70;40.10;;;;;;491343;240;1045;-53
2020/12/18 07:02:48;;;;;;;;;;;19.70;40.10;;;;;;491326;240;2138;-53
2020/12/18 07:04:49;;;;;;;;;;;19.80;40.20;;;;;;491333;240;1064;-53
2020/12/18 07:06:51;;;;;;;;;;;19.80;40.20;;;;;;491352;240;1238;-53
2020/12/18 07:08:52;;;;;;;;;;;19.90;40.10;;;;;;491408;240;1541;-53
2020/12/18 07:10:53;;;;;;;;;;;19.90;40.00;;;;;;491430;240;1085;-53
2020/12/18 07:12:55;;;;;;;;;;;19.90;40.00;;;;;;491318;240;1132;-53
2020/12/18 07:14:56;;;;;;;;;;;19.80;40.00;;;;;;491409;240;1036;-52
2020/12/18 07:16:57;;;;;;;;;;;19.80;40.10;;;;;;491289;240;1035;-53
2020/12/18 07:18:58;;;;;;;;;;;19.80;39.00;;;;;;491446;240;1044;-53
2020/12/18 07:21:00;;;;;;;;;;;19.70;40.20;;;;;;491264;240;1145;-52
2020/12/18 07:23:01;;;;;;;;;;;19.70;40.40;;;;;;491152;240;2145;-53
2020/12/18 07:25:03;;;;;;;;;;;19.60;40.40;;;;;;491281;240;1057;-53
2020/12/18 07:27:04;;;;;;;;;;;19.60;40.50;;;;;;491291;240;1108;-53
2020/12/18 07:29:05;;;;;;;;;;;19.50;40.50;;;;;;491216;240;1124;-53
2020/12/18 07:31:06;;;;;;;;;;;19.50;40.60;;;;;;491129;240;1036;-53
2020/12/18 07:33:08;;;;;;;;;;;19.50;40.70;;;;;;491338;240;1037;-53
2020/12/18 07:35:09;;;;;;;;;;;19.40;40.70;;;;;;491245;240;1058;-53
2020/12/18 07:37:10;;;;;;;;;;;19.40;40.80;;;;;;491121;240;1160;-53
2020/12/18 07:39:11;;;;;;;;;;;19.40;40.90;;;;;;491152;240;1046;-53
2020/12/18 07:41:15;;;;;;;;;;;19.30;40.90;;;;;;491270;240;1036;-53
2020/12/18 07:43:16;;;;;;;;;;;19.30;41.00;;;;;;491180;240;2180;-53
2020/12/18 07:45:17;;;;;;;;;;;19.20;41.00;;;;;;491157;240;1051;-53
2020/12/18 07:47:19;;;;;;;;;;;19.20;39.70;;;;;;491154;240;1085;-53
2020/12/18 07:49:20;;;;;;;;;;;19.20;39.90;;;;;;491161;240;1207;-53
2020/12/18 07:51:21;;;;;;;;;;;19.20;41.20;;;;;;491280;240;1154;-53
2020/12/18 07:53:23;;;;;;;;;;;19.10;41.20;;;;;;491283;240;1022;-53
2020/12/18 07:55:24;;;;;;;;;;;19.10;41.30;;;;;;491263;240;1065;-53
2020/12/18 07:57:25;;;;;;;;;;;19.10;41.30;;;;;;491265;240;1057;-53
2020/12/18 07:59:26;;;;;;;;;;;19.10;41.30;;;;;;491250;240;1044;-53
2020/12/18 08:01:28;;;;;;;;;;;19.00;41.30;;;;;;491145;240;1052;-53
2020/12/18 08:03:29;;;;;;;;;;;19.00;41.40;;;;;;491132;240;2113;-53
2020/12/18 08:05:30;;;;;;;;;;;19.00;41.40;;;;;;491164;240;1130;-53
2020/12/18 08:07:31;;;;;;;;;;;19.00;41.40;;;;;;490906;240;1196;-53
2020/12/18 08:09:33;;;;;;;;;;;19.00;41.50;;;;;;490969;240;1092;-53
2020/12/18 08:11:34;;;;;;;;;;;18.90;40.20;;;;;;491152;240;1093;-53
2020/12/18 08:13:35;;;;;;;;;;;18.90;41.50;;;;;;491249;240;1054;-53
2020/12/18 08:15:37;;;;;;;;;;;18.90;41.50;;;;;;491090;240;1066;-53
2020/12/18 08:17:38;;;;;;;;;;;18.90;41.50;;;;;;490889;240;1053;-53
2020/12/18 08:19:39;;;;;;;;;;;18.90;41.60;;;;;;490977;240;1280;-53
2020/12/18 08:21:41;;;;;;;;;;;18.90;41.60;;;;;;491156;240;1125;-53
2020/12/18 08:23:42;;;;;;;;;;;18.80;41.60;;;;;;491185;240;2183;-52
2020/12/18 08:25:43;;;;;;;;;;;18.80;41.60;;;;;;491028;240;1076;-53
2020/12/18 08:27:45;;;;;;;;;;;18.80;41.70;;;;;;490854;240;1086;-53
2020/12/18 08:29:46;;;;;;;;;;;18.80;41.70;;;;;;490970;240;1368;-53
2020/12/18 08:31:47;;;;;;;;;;;18.80;41.70;;;;;;490966;240;1090;-52
2020/12/18 08:33:48;;;;;;;;;;;18.70;41.70;;;;;;491240;240;1016;-53
2020/12/18 08:35:50;;;;;;;;;;;18.70;41.70;;;;;;491067;240;1127;-53
2020/12/18 08:37:51;;;;;;;;;;;18.70;41.70;;;;;;491116;240;1302;-53
2020/12/18 08:39:52;;;;;;;;;;;18.70;41.70;;;;;;490950;240;1105;-52
2020/12/18 08:41:53;;;;;;;;;;;18.70;41.70;;;;;;491059;240;2141;-53
2020/12/18 08:43:55;;;;;;;;;;;18.70;41.80;;;;;;490980;240;1210;-53
2020/12/18 08:45:56;;;;;;;;;;;18.70;40.50;;;;;;490929;240;1199;-53
2020/12/18 08:47:58;;;;;;;;;;;18.70;41.90;;;;;;490854;240;1154;-53
2020/12/18 08:49:59;;;;;;;;;;;18.70;41.80;;;;;;491100;240;1093;-53
2020/12/18 08:52:00;;;;;;;;;;;18.70;41.80;;;;;;491068;240;1245;-53
2020/12/18 08:54:02;;;;;;;;;;;18.70;41.80;;;;;;491188;240;1086;-52
2020/12/18 08:56:03;;;;;;;;;;;18.70;41.90;;;;;;491131;240;1361;-53
2020/12/18 08:58:04;;;;;;;;;;;18.60;41.80;;;;;;491205;240;1083;-53
2020/12/18 09:00:05;;;;;;;;;;;18.70;41.90;;;;;;491155;240;1190;-53
2020/12/18 09:02:07;;;;;;;;;;;18.60;41.80;;;;;;491006;240;2183;-53
2020/12/18 09:04:08;;;;;;;;;;;18.60;41.80;;;;;;491146;240;1153;-53
2020/12/18 09:06:09;;;;;;;;;;;18.60;40.60;;;;;;490904;240;1437;-53
2020/12/18 09:08:10;;;;;;;;;;;18.60;41.80;;;;;;491026;240;1191;-53
2020/12/18 09:10:12;;;;;;;;;;;18.60;40.60;;;;;;491082;240;1309;-53
2020/12/18 09:12:13;;;;;;;;;;;18.60;41.80;;;;;;491068;240;1164;-53
2020/12/18 09:14:14;;;;;;;;;;;18.60;41.90;;;;;;491161;240;1007;-53
2020/12/18 09:16:17;;;;;;;;;;;18.60;41.90;;;;;;491098;240;1234;-54
2020/12/18 09:18:17;;;;;;;;;;;18.60;41.80;;;;;;491153;242;1340;-53
2020/12/18 09:20:18;;;;;;;;;;;18.60;40.60;;;;;;491164;240;1187;-53
2020/12/18 09:22:19;;;;;;;;;;;18.60;41.80;;;;;;491075;240;2160;-53
2020/12/18 09:24:24;;;;;;;;;;;18.60;41.90;;;;;;491143;240;1036;-53
2020/12/18 09:26:22;;;;;;;;;;;18.50;41.90;;;;;;491090;241;1860;-53
2020/12/18 09:28:24;;;;;;;;;;;18.50;41.90;;;;;;491115;240;1057;-54
2020/12/18 09:30:25;;;;;;;;;;;18.50;41.90;;;;;;490981;240;1427;-53
2020/12/18 09:32:26;;;;;;;;;;;18.50;41.90;;;;;;490790;240;1137;-52
2020/12/18 09:34:28;;;;;;;;;;;18.50;41.90;;;;;;490925;240;1027;-53
2020/12/18 09:36:30;;;;;;;;;;;18.50;41.90;;;;;;490800;240;1102;-53
2020/12/18 09:38:31;;;;;;;;;;;18.50;41.90;;;;;;490902;241;1227;-53
2020/12/18 09:40:32;;;;;;;;;;;18.50;40.60;;;;;;490874;240;1098;-52
2020/12/18 09:42:33;;;;;;;;;;;18.50;40.60;;;;;;490936;240;2192;-53
2020/12/18 09:44:35;;;;;;;;;;;18.50;41.90;;;;;;491041;240;1074;-53
2020/12/18 09:46:36;;;;;;;;;;;18.50;41.90;;;;;;490868;240;1110;-53
2020/12/18 09:48:37;;;;;;;;;;;18.50;41.90;;;;;;490924;240;1162;-53
2020/12/18 09:50:39;;;;;;;;;;;18.50;41.90;;;;;;490941;240;1191;-53
2020/12/18 09:52:40;;;;;;;;;;;18.50;41.90;;;;;;491056;240;1199;-53
2020/12/18 09:54:42;;;;;;;;;;;18.50;41.90;;;;;;491033;240;1159;-53
2020/12/18 09:56:43;;;;;;;;;;;18.50;41.90;;;;;;491128;240;1980;-53
2020/12/18 09:58:44;;;;;;;;;;;18.50;41.90;;;;;;491173;240;1139;-53
2020/12/18 10:00:45;;;;;;;;;;;18.50;41.90;;;;;;491078;240;1285;-53
2020/12/18 10:02:46;;;;;;;;;;;18.50;41.90;;;;;;490982;240;2199;-53
2020/12/18 10:04:48;;;;;;;;;;;18.50;41.90;;;;;;490981;240;1151;-53
2020/12/18 10:06:49;;;;;;;;;;;18.50;41.90;;;;;;490994;240;1124;-53
2020/12/18 10:08:50;;;;;;;;;;;18.50;41.90;;;;;;490998;240;1257;-53
2020/12/18 10:10:52;;;;;;;;;;;18.50;41.90;;;;;;490930;240;1089;-53
2020/12/18 10:12:53;;;;;;;;;;;18.50;40.60;;;;;;490823;240;1230;-53
2020/12/18 10:14:54;;;;;;;;;;;18.50;41.90;;;;;;490980;240;1176;-52
2020/12/18 10:16:55;;;;;;;;;;;18.40;41.90;;;;;;491019;240;1235;-53
2020/12/18 10:18:57;;;;;;;;;;;18.40;41.90;;;;;;491100;240;1181;-53
2020/12/18 10:20:58;;;;;;;;;;;18.40;41.90;;;;;;491089;240;1186;-53
2020/12/18 10:22:59;;;;;;;;;;;18.40;41.90;;;;;;491053;240;2192;-53
2020/12/18 10:25:01;;;;;;;;;;;18.40;41.90;;;;;;491081;240;1062;-53
2020/12/18 10:27:02;;;;;;;;;;;18.40;40.60;;;;;;490862;240;1202;-53
2020/12/18 10:29:03;;;;;;;;;;;18.40;41.90;;;;;;490828;240;1187;-53
2020/12/18 10:31:05;;;;;;;;;;;18.40;41.90;;;;;;490984;240;1169;-53
2020/12/18 10:33:06;;;;;;;;;;;18.40;40.60;;;;;;491105;240;1404;-52
2020/12/18 10:35:07;;;;;;;;;;;18.40;41.90;;;;;;491281;240;1095;-53
2020/12/18 10:37:09;;;;;;;;;;;18.40;41.90;;;;;;491048;240;1213;-53
2020/12/18 10:39:10;;;;;;;;;;;18.40;41.90;;;;;;491055;240;1187;-52
2020/12/18 10:41:11;;;;;;;;;;;18.40;41.80;;;;;;490968;240;1039;-53
2020/12/18 10:43:13;;;;;;;;;;;18.40;41.90;;;;;;490933;240;2191;-53
2020/12/18 10:45:14;;;;;;;;;;;18.40;41.90;;;;;;490984;240;1257;-53
2020/12/18 10:47:15;;;;;;;;;;;18.40;41.80;;;;;;491135;240;1102;-53
2020/12/18 10:49:17;;;;;;;;;;;18.40;41.80;;;;;;491228;240;1096;-53
2020/12/18 10:51:18;;;;;;;;;;;18.40;40.60;;;;;;491115;240;1282;-53
2020/12/18 10:53:20;;;;;;;;;;;18.40;41.90;;;;;;491058;239;1346;-52
2020/12/18 10:55:21;;;;;;;;;;;18.40;41.90;;;;;;491076;240;1096;-53
2020/12/18 10:57:22;;;;;;;;;;;18.40;41.90;;;;;;490992;240;1109;-53
2020/12/18 10:59:24;;;;;;;;;;;18.40;41.80;;;;;;491098;240;1107;-54
2020/12/18 11:01:25;;;;;;;;;;;18.40;41.80;;;;;;490926;240;1010;-52
2020/12/18 11:03:26;;;;;;;;;;;18.40;41.80;;;;;;491082;240;2140;-53
2020/12/18 11:05:28;;;;;;;;;;;18.40;41.90;;;;;;491043;240;1219;-53
2020/12/18 11:07:29;;;;;;;;;;;18.40;41.90;;;;;;491125;240;1156;-53
2020/12/18 11:09:31;;;;;;;;;;;18.40;41.90;;;;;;491070;240;1199;-53
2020/12/18 11:11:32;;;;;;;;;;;18.40;41.90;;;;;;491111;240;1063;-53
2020/12/18 11:13:33;;;;;;;;;;;18.40;41.90;;;;;;491113;240;1156;-53
2020/12/18 11:15:35;;;;;;;;;;;18.40;41.90;;;;;;491077;240;1289;-53
2020/12/18 11:17:36;;;;;;;;;;;18.40;41.90;;;;;;490915;240;1248;-54
2020/12/18 11:19:37;;;;;;;;;;;18.40;41.90;;;;;;490991;240;1092;-54
2020/12/18 11:21:43;;;;;;;;;;;18.30;41.90;;;;;;491014;240;1148;-52
2020/12/18 11:23:40;;;;;;;;;;;18.40;41.80;;;;;;491100;241;2192;-53
2020/12/18 11:25:41;;;;;;;;;;;18.40;40.50;;;;;;491114;240;1109;-53
2020/12/18 11:27:42;;;;;;;;;;;18.40;41.80;;;;;;491240;240;1093;-53
2020/12/18 11:29:44;;;;;;;;;;;18.40;41.70;;;;;;491115;240;1140;-53
2020/12/18 11:31:47;;;;;;;;;;;18.40;41.70;;;;;;491110;240;1207;-53
2020/12/18 11:33:46;;;;;;;;;;;18.40;41.60;;;;;;491157;241;1818;-53
2020/12/18 11:35:48;;;;;;;;;;;18.50;41.60;;;;;;491120;240;1382;-53
2020/12/18 11:37:49;;;;;;;;;;;18.50;41.60;;;;;;491100;240;1081;-53
2020/12/18 11:39:50;;;;;;;;;;;18.50;41.50;;;;;;491172;240;1207;-53
2020/12/18 11:41:52;;;;;;;;;;;18.50;41.50;;;;;;490991;240;1193;-53
2020/12/18 11:43:53;;;;;;;;;;;18.60;40.20;;;;;;490965;240;2187;-53
2020/12/18 11:45:54;;;;;;;;;;;18.60;41.50;;;;;;491033;240;1358;-53
2020/12/18 11:47:55;;;;;;;;;;;18.60;41.40;;;;;;491072;240;1091;-53
2020/12/18 11:49:57;;;;;;;;;;;18.60;41.40;;;;;;491111;240;1322;-53
2020/12/18 11:51:58;;;;;;;;;;;18.60;41.40;;;;;;490966;240;1165;-53
2020/12/18 11:53:59;;;;;;;;;;;18.60;41.30;;;;;;491034;240;1183;-53
2020/12/18 11:56:00;;;;;;;;;;;18.70;41.30;;;;;;490965;240;1011;-53
2020/12/18 11:58:02;;;;;;;;;;;18.60;41.20;;;;;;491044;240;1103;-53
2020/12/18 12:00:03;;;;;;;;;;;18.70;41.30;;;;;;491045;240;989;-53